Time;durP1;ratioP1;P1;durP2;ratioP2;P2;SDS_P1;SDS_P2;PMS_P1;PMS_P2;Temp;Humidity;BMP_temperature;BMP_pressure;BME280_temperature;BME280_humidity;BME280_pressure;Samples;Min_cycle;Max_cycle;Signal;HPM_P1;HPM_P2
2021/01/28 00:00:38;;;;;;;19.23;10.33;;;5.50;99.90;;;;;;5118449;28;20224;-65
2021/01/28 00:03:06;;;;;;;20.00;11.52;;;5.50;99.90;;;;;;5118894;28;20462;-66
2021/01/28 00:05:34;;;;;;;21.27;12.70;;;5.50;99.90;;;;;;5120615;28;20180;-65
2021/01/28 00:08:00;;;;;;;21.83;11.90;;;5.50;99.90;;;;;;5122197;28;20175;-61
2021/01/28 00:10:28;;;;;;;19.67;11.57;;;5.50;99.90;;;;;;5122876;28;20247;-62
2021/01/28 00:12:54;;;;;;;18.98;10.07;;;5.50;99.90;;;;;;5121451;27;20224;-66
2021/01/28 00:15:22;;;;;;;22.90;12.00;;;5.60;99.90;;;;;;5120454;28;20207;-67
2021/01/28 00:17:48;;;;;;;23.23;11.57;;;5.70;99.90;;;;;;5123305;28;20429;-66
2021/01/28 00:20:22;;;;;;;19.13;10.10;;;5.70;99.90;;;;;;5124003;28;20171;-61
2021/01/28 00:22:48;;;;;;;17.67;10.18;;;5.70;99.90;;;;;;5122798;28;20167;-61
2021/01/28 00:25:16;;;;;;;18.77;10.90;;;5.70;99.90;;;;;;5120597;28;20201;-67
2021/01/28 00:27:43;;;;;;;19.02;11.23;;;5.70;99.90;;;;;;5121059;27;20421;-61
2021/01/28 00:30:12;;;;;;;23.92;11.98;;;5.60;99.90;;;;;;5118459;28;20179;-62
2021/01/28 00:32:38;;;;;;;19.83;9.93;;;5.70;99.90;;;;;;5122215;28;20539;-66
2021/01/28 00:35:06;;;;;;;19.47;10.13;;;5.80;99.90;;;;;;5121021;28;20636;-65
2021/01/28 00:37:32;;;;;;;22.27;11.68;;;5.70;99.90;;;;;;5121506;28;20172;-61
2021/01/28 00:39:57;;;;;;;19.70;11.40;;;5.70;99.90;;;;;;5121908;28;20197;-61
2021/01/28 00:42:23;;;;;;;21.90;10.93;;;5.70;99.90;;;;;;5119141;28;20603;-61
2021/01/28 00:44:49;;;;;;;25.98;11.95;;;5.70;99.90;;;;;;5116084;28;20201;-61
2021/01/28 00:47:15;;;;;;;21.33;11.98;;;5.60;99.90;;;;;;5116036;28;20203;-61
2021/01/28 00:49:41;;;;;;;20.93;10.50;;;5.60;99.90;;;;;;5115965;28;20175;-61
2021/01/28 00:52:06;;;;;;;18.17;10.73;;;5.50;99.90;;;;;;5115669;28;20176;-61
2021/01/28 00:54:32;;;;;;;20.27;11.07;;;5.50;99.90;;;;;;5115323;27;20203;-61
2021/01/28 00:56:57;;;;;;;22.17;11.60;;;5.50;99.90;;;;;;5115577;28;20613;-61
2021/01/28 00:59:23;;;;;;;18.87;11.20;;;5.60;99.90;;;;;;5115689;28;20175;-61
2021/01/28 01:01:48;;;;;;;18.50;11.87;;;5.70;99.90;;;;;;5114531;28;20195;-61
2021/01/28 01:04:14;;;;;;;20.73;10.43;;;5.50;99.90;;;;;;5115313;28;20183;-61
2021/01/28 01:06:40;;;;;;;16.67;9.93;;;5.50;99.90;;;;;;5115577;28;20580;-61
2021/01/28 01:09:05;;;;;;;22.30;10.47;;;5.60;99.90;;;;;;5115404;28;20186;-62
2021/01/28 01:11:31;;;;;;;23.87;11.43;;;5.60;99.90;;;;;;5115202;28;20180;-61
2021/01/28 01:13:56;;;;;;;18.27;11.03;;;5.70;99.90;;;;;;5114899;28;20190;-61
2021/01/28 01:16:22;;;;;;;20.33;10.70;;;5.70;99.90;;;;;;5115110;28;20175;-67
2021/01/28 01:18:48;;;;;;;18.50;9.90;;;5.60;99.90;;;;;;5115107;28;20185;-66
2021/01/28 01:21:13;;;;;;;22.00;9.60;;;5.50;99.90;;;;;;5114961;28;20504;-66
2021/01/28 01:23:39;;;;;;;23.20;11.83;;;5.60;99.90;;;;;;5114701;28;20203;-61
2021/01/28 01:26:05;;;;;;;18.13;9.60;;;5.60;99.90;;;;;;5114751;28;20185;-61
2021/01/28 01:28:31;;;;;;;18.10;10.83;;;5.50;99.90;;;;;;5114847;28;20218;-61
2021/01/28 01:30:57;;;;;;;15.23;9.38;;;5.50;99.90;;;;;;5114856;28;20961;-66
2021/01/28 01:33:23;;;;;;;17.75;11.25;;;5.50;99.90;;;;;;5114550;28;20194;-61
2021/01/28 01:35:49;;;;;;;19.97;10.23;;;5.40;99.90;;;;;;5113622;28;20203;-61
2021/01/28 01:38:15;;;;;;;17.50;10.97;;;5.40;99.90;;;;;;5114694;28;20421;-61
2021/01/28 01:40:45;;;;;;;17.20;10.48;;;5.40;99.90;;;;;;5114599;28;20754;-65
2021/01/28 01:43:12;;;;;;;20.00;9.90;;;5.40;99.90;;;;;;5113881;28;20262;-65
2021/01/28 01:45:42;;;;;;;19.50;10.32;;;5.40;99.90;;;;;;5114817;28;20240;-66
2021/01/28 01:48:46;;;;;;;19.95;10.98;;;5.40;99.90;;;;;;5114546;28;20687;-61
2021/01/28 01:51:17;;;;;;;15.02;8.60;;;5.40;99.90;;;;;;5108046;28;20217;-61
2021/01/28 01:53:56;;;;;;;21.15;10.90;;;5.40;99.90;;;;;;5114287;28;20655;-61
2021/01/28 01:56:32;;;;;;;18.27;10.35;;;5.30;99.90;;;;;;5114402;28;20241;-61
2021/01/28 01:59:28;;;;;;;21.13;11.43;;;5.20;99.90;;;;;;5114478;28;20198;-61
2021/01/28 02:02:07;;;;;;;14.82;9.52;;;5.20;99.90;;;;;;5094628;28;20645;-61
2021/01/28 02:04:33;;;;;;;14.07;8.00;;;5.10;99.90;;;;;;5114268;28;20278;-65
2021/01/28 02:07:20;;;;;;;14.75;8.95;;;5.20;99.90;;;;;;5114542;28;20272;-61
2021/01/28 02:09:47;;;;;;;15.00;8.65;;;5.10;99.90;;;;;;5114142;28;20479;-61
2021/01/28 02:12:13;;;;;;;13.10;7.20;;;5.10;99.90;;;;;;5113289;28;20179;-61
2021/01/28 02:14:39;;;;;;;9.13;5.03;;;4.80;99.90;;;;;;5114213;28;20681;-61
2021/01/28 02:17:10;;;;;;;13.95;7.20;;;4.70;99.90;;;;;;5114214;28;20179;-61
2021/01/28 02:19:51;;;;;;;11.10;6.80;;;4.80;99.90;;;;;;5113148;28;20194;-65
2021/01/28 02:22:42;;;;;;;5.78;4.60;;;4.70;99.90;;;;;;5114132;28;20206;-65
2021/01/28 02:25:27;;;;;;;8.82;5.60;;;4.50;3.30;;;;;;5108264;28;20233;-65
2021/01/28 02:27:58;;;;;;;12.25;6.35;;;4.50;1.00;;;;;;5114189;28;20512;-65
2021/01/28 02:30:27;;;;;;;9.30;6.30;;;4.40;1.00;;;;;;5114135;28;20175;-65
2021/01/28 02:32:53;;;;;;;9.95;5.72;;;4.30;1.00;;;;;;5114081;28;20501;-65
2021/01/28 02:35:21;;;;;;;10.60;7.00;;;4.10;1.00;;;;;;5113831;28;20232;-65
2021/01/28 02:37:47;;;;;;;14.25;7.88;;;4.10;1.00;;;;;;5113961;28;20182;-65
2021/01/28 02:40:14;;;;;;;11.43;7.05;;;4.00;1.00;;;;;;5114225;28;20601;-66
2021/01/28 02:42:40;;;;;;;8.77;5.88;;;4.10;1.00;;;;;;5113995;28;20171;-65
2021/01/28 02:45:08;;;;;;;12.53;7.60;;;3.90;1.00;;;;;;5113760;28;20205;-65
2021/01/28 02:47:34;;;;;;;8.73;5.65;;;3.90;1.00;;;;;;5114057;28;20171;-62
2021/01/28 02:50:00;;;;;;;13.93;7.10;;;3.90;1.00;;;;;;5112904;28;20340;-66
2021/01/28 02:52:25;;;;;;;11.70;7.85;;;3.70;1.00;;;;;;5112959;28;20184;-61
2021/01/28 02:54:53;;;;;;;11.33;5.90;;;3.70;1.00;;;;;;5117386;28;20198;-61
2021/01/28 02:57:19;;;;;;;10.70;7.10;;;3.60;1.00;;;;;;5117827;28;20179;-61
2021/01/28 02:59:46;;;;;;;11.93;7.57;;;3.50;1.00;;;;;;5117879;28;20179;-59
2021/01/28 03:02:17;;;;;;;12.95;7.53;;;3.60;1.00;;;;;;5117844;28;20521;-59
2021/01/28 03:04:43;;;;;;;11.55;7.40;;;3.60;10.40;;;;;;5117433;28;20187;-60
2021/01/28 03:07:10;;;;;;;13.70;8.27;;;3.60;19.30;;;;;;5117969;28;20204;-60
2021/01/28 03:09:36;;;;;;;15.77;6.90;;;3.70;24.50;;;;;;5117727;28;20201;-61
2021/01/28 03:12:04;;;;;;;12.38;7.00;;;3.60;21.60;;;;;;5117531;28;20583;-60
2021/01/28 03:14:30;;;;;;;11.70;6.22;;;3.60;27.90;;;;;;5117175;28;20212;-61
2021/01/28 03:16:55;;;;;;;13.63;6.87;;;3.40;37.10;;;;;;5117675;28;20175;-60
2021/01/28 03:19:21;;;;;;;15.80;7.80;;;3.40;58.50;;;;;;5117646;28;20178;-65
2021/01/28 03:21:47;;;;;;;11.70;6.70;;;3.50;74.20;;;;;;5117658;28;20182;-65
2021/01/28 03:24:13;;;;;;;13.83;7.90;;;3.50;79.20;;;;;;5117416;28;20457;-65
2021/01/28 03:26:39;;;;;;;13.77;8.20;;;3.60;83.80;;;;;;5117668;28;20493;-61
2021/01/28 03:29:06;;;;;;;13.50;6.07;;;3.60;72.90;;;;;;5117893;28;20171;-61
2021/01/28 03:31:32;;;;;;;17.50;8.77;;;3.60;53.50;;;;;;5117501;28;20186;-60
2021/01/28 03:33:58;;;;;;;14.57;7.50;;;3.40;40.00;;;;;;5117145;28;20179;-61
2021/01/28 03:36:23;;;;;;;15.47;8.13;;;3.60;47.60;;;;;;5117375;28;20240;-61
2021/01/28 03:38:49;;;;;;;14.90;7.47;;;3.70;48.90;;;;;;5117619;28;20214;-62
2021/01/28 03:41:14;;;;;;;15.13;6.83;;;3.80;44.20;;;;;;5117456;28;20213;-65
2021/01/28 03:43:40;;;;;;;15.90;8.20;;;3.70;28.70;;;;;;5117107;28;20669;-65
2021/01/28 03:46:05;;;;;;;15.33;7.20;;;3.70;18.30;;;;;;5117514;28;20190;-65
2021/01/28 03:48:31;;;;;;;15.90;7.80;;;3.70;16.20;;;;;;5117863;28;20194;-60
2021/01/28 03:50:57;;;;;;;14.27;7.83;;;3.70;16.30;;;;;;5117185;28;20245;-61
2021/01/28 03:53:22;;;;;;;10.77;6.67;;;3.70;9.50;;;;;;5116989;28;20519;-61
2021/01/28 03:55:48;;;;;;;9.40;6.33;;;3.50;1.00;;;;;;5116849;28;20210;-60
2021/01/28 03:58:13;;;;;;;8.37;4.73;;;3.50;1.00;;;;;;5116898;28;20220;-60
2021/01/28 04:00:39;;;;;;;14.73;6.93;;;3.30;1.00;;;;;;5117502;28;20179;-60
2021/01/28 04:03:05;;;;;;;15.43;9.38;;;3.50;1.00;;;;;;5117277;28;20195;-60
2021/01/28 04:05:31;;;;;;;14.13;8.23;;;3.60;1.00;;;;;;5116653;28;20526;-60
2021/01/28 04:07:57;;;;;;;17.13;8.70;;;3.60;1.00;;;;;;5117105;28;20420;-65
2021/01/28 04:10:26;;;;;;;14.32;7.57;;;3.60;1.00;;;;;;5116642;28;20262;-60
2021/01/28 04:12:53;;;;;;;16.77;8.35;;;3.80;1.00;;;;;;5116652;28;20176;-60
2021/01/28 04:15:19;;;;;;;16.52;7.13;;;3.90;1.00;;;;;;5116330;28;20211;-66
2021/01/28 04:17:46;;;;;;;14.10;6.85;;;3.60;1.00;;;;;;5116472;28;20203;-65
2021/01/28 04:20:12;;;;;;;12.23;6.82;;;3.50;1.00;;;;;;5116477;28;20254;-65
2021/01/28 04:22:38;;;;;;;10.00;7.18;;;3.50;1.00;;;;;;5116531;28;20172;-65
2021/01/28 04:25:07;;;;;;;12.10;8.37;;;3.50;1.00;;;;;;5116312;28;20326;-60
2021/01/28 04:27:38;;;;;;;11.80;7.25;;;3.40;1.00;;;;;;5116856;28;20552;-60
2021/01/28 04:30:07;;;;;;;11.48;7.35;;;3.50;1.00;;;;;;5116512;28;20284;-60
2021/01/28 04:32:33;;;;;;;11.07;5.70;;;3.40;1.00;;;;;;5116128;28;20186;-60
2021/01/28 04:34:58;;;;;;;9.43;5.00;;;3.40;1.00;;;;;;5114953;28;20207;-60
2021/01/28 04:37:24;;;;;;;11.57;5.37;;;3.40;1.00;;;;;;5116007;28;20232;-60
2021/01/28 04:39:51;;;;;;;9.83;5.80;;;3.10;1.00;;;;;;5115814;28;20258;-60
2021/01/28 04:42:20;;;;;;;10.98;6.07;;;3.20;1.00;;;;;;5115850;27;20194;-60
2021/01/28 04:44:47;;;;;;;7.38;5.28;;;3.30;1.00;;;;;;5115415;28;20191;-60
2021/01/28 04:47:17;;;;;;;7.80;4.40;;;3.10;1.00;;;;;;5116099;28;20266;-65
2021/01/28 04:49:47;;;;;;;11.18;6.05;;;3.20;1.00;;;;;;5116412;28;20624;-61
2021/01/28 04:52:14;;;;;;;7.70;4.45;;;3.10;1.00;;;;;;5116090;28;20612;-59
2021/01/28 04:54:42;;;;;;;9.43;5.57;;;3.20;99.90;;;;;;5115643;28;20647;-60
2021/01/28 04:57:13;;;;;;;7.63;5.40;;;3.20;99.90;;;;;;5115175;28;20190;-61
2021/01/28 04:59:44;;;;;;;9.50;6.05;;;3.30;99.90;;;;;;5115925;28;20175;-61
2021/01/28 05:02:24;;;;;;;8.55;5.50;;;3.40;99.90;;;;;;5115832;28;20191;-61
2021/01/28 05:04:56;;;;;;;9.68;6.63;;;3.50;99.90;;;;;;5115411;28;20679;-61
2021/01/28 05:07:27;;;;;;;10.23;5.35;;;3.40;99.90;;;;;;5115296;28;20179;-61
2021/01/28 05:10:04;;;;;;;9.65;4.90;;;3.20;99.90;;;;;;5115372;28;20182;-61
2021/01/28 05:12:30;;;;;;;13.85;6.22;;;3.40;1.00;;;;;;5114229;28;20323;-61
2021/01/28 05:15:23;;;;;;;9.32;5.68;;;3.30;1.00;;;;;;5114891;28;20723;-60
2021/01/28 05:18:16;;;;;;;11.18;5.90;;;3.30;1.00;;;;;;5114195;28;20183;-60
2021/01/28 05:20:42;;;;;;;12.00;6.38;;;3.40;1.00;;;;;;5115617;28;20179;-65
2021/01/28 05:23:22;;;;;;;11.75;6.80;;;3.60;1.00;;;;;;5113936;28;20655;-65
2021/01/28 05:25:48;;;;;;;11.45;7.13;;;3.60;1.00;;;;;;5115283;28;20186;-65
2021/01/28 05:28:24;;;;;;;12.30;5.80;;;3.50;1.00;;;;;;5115203;28;20191;-65
2021/01/28 05:30:50;;;;;;;14.65;7.70;;;3.50;1.00;;;;;;5115307;28;20240;-65
2021/01/28 05:33:33;;;;;;;13.40;8.00;;;3.10;1.00;;;;;;5115094;28;20187;-65
2021/01/28 05:36:05;;;;;;;10.18;6.30;;;3.30;1.00;;;;;;5114909;28;20544;-65
2021/01/28 05:38:37;;;;;;;11.38;6.63;;;3.50;1.00;;;;;;5114996;28;20180;-65
2021/01/28 05:41:03;;;;;;;10.20;6.35;;;3.40;1.00;;;;;;5114931;28;20190;-65
2021/01/28 05:43:36;;;;;;;11.85;6.15;;;3.20;1.00;;;;;;5114746;28;20498;-65
2021/01/28 05:46:22;;;;;;;12.95;6.95;;;3.10;1.00;;;;;;5114757;28;20171;-65
2021/01/28 05:49:02;;;;;;;11.55;6.13;;;3.00;1.00;;;;;;5114752;28;20182;-65
2021/01/28 05:51:42;;;;;;;10.15;6.40;;;2.90;1.00;;;;;;5114575;28;20171;-65
2021/01/28 05:54:24;;;;;;;13.38;6.72;;;2.90;1.00;;;;;;5114511;28;20175;-65
2021/01/28 05:57:10;;;;;;;9.75;6.32;;;2.80;1.00;;;;;;5113653;28;20274;-65
2021/01/28 06:00:06;;;;;;;10.43;6.20;;;2.70;1.00;;;;;;5114730;28;20170;-65
2021/01/28 06:02:56;;;;;;;10.27;6.25;;;2.80;1.00;;;;;;5114739;28;20194;-65
2021/01/28 06:06:04;;;;;;;14.30;6.40;;;2.80;1.00;;;;;;5113394;28;20186;-65
2021/01/28 06:08:47;;;;;;;9.50;5.38;;;2.80;1.00;;;;;;5114396;28;20198;-65
2021/01/28 06:12:09;;;;;;;7.32;5.50;;;2.50;1.00;;;;;;5114357;28;20175;-65
2021/01/28 06:14:37;;;;;;;9.98;6.82;;;2.50;1.00;;;;;;5071686;28;20293;-65
2021/01/28 06:17:15;;;;;;;8.73;5.88;;;2.70;1.00;;;;;;5072176;28;20247;-61
2021/01/28 06:20:18;;;;;;;6.70;4.63;;;2.60;1.00;;;;;;5101096;28;20698;-62
2021/01/28 06:23:12;;;;;;;10.05;6.32;;;2.60;1.00;;;;;;5114209;28;20193;-61
2021/01/28 06:25:54;;;;;;;13.18;6.63;;;2.80;1.00;;;;;;5114158;28;20182;-61
2021/01/28 06:28:40;;;;;;;7.78;5.30;;;2.90;1.00;;;;;;5113631;28;20206;-61
2021/01/28 06:31:31;;;;;;;9.20;5.28;;;2.70;1.00;;;;;;5113085;28;20612;-60
2021/01/28 06:34:02;;;;;;;10.27;5.90;;;2.50;1.00;;;;;;5113964;28;20512;-61
2021/01/28 06:36:46;;;;;;;7.18;5.65;;;2.70;1.00;;;;;;5114009;28;20697;-61
2021/01/28 06:39:26;;;;;;;8.40;5.60;;;2.90;1.00;;;;;;5112918;28;20180;-65
2021/01/28 06:42:13;;;;;;;11.70;6.85;;;3.00;1.00;;;;;;5113910;28;20171;-60
2021/01/28 06:44:51;;;;;;;9.48;5.45;;;3.00;99.90;;;;;;5113945;28;20293;-60
2021/01/28 06:47:21;;;;;;;9.32;5.72;;;2.50;1.00;;;;;;5113953;28;20600;-60
2021/01/28 06:50:01;;;;;;;10.05;5.53;;;2.40;1.00;;;;;;5114190;28;20261;-60
2021/01/28 06:53:00;;;;;;;8.90;5.15;;;2.20;1.00;;;;;;5113893;28;20175;-60
2021/01/28 06:55:53;;;;;;;11.25;7.40;;;2.20;1.00;;;;;;5113674;28;20280;-61
2021/01/28 06:58:39;;;;;;;9.98;6.18;;;2.20;1.00;;;;;;5113692;28;20212;-61
2021/01/28 07:01:34;;;;;;;13.02;5.55;;;2.30;1.00;;;;;;5113627;28;20624;-61
2021/01/28 07:04:17;;;;;;;9.15;5.90;;;2.20;1.00;;;;;;5113254;28;20195;-60
2021/01/28 07:07:12;;;;;;;10.93;5.85;;;2.30;1.00;;;;;;5113808;28;20174;-65
2021/01/28 07:09:56;;;;;;;11.05;6.78;;;2.20;1.00;;;;;;5112574;28;20538;-65
2021/01/28 07:12:30;;;;;;;11.05;6.00;;;2.40;1.00;;;;;;5113670;28;20698;-65
2021/01/28 07:14:55;;;;;;;9.90;5.93;;;2.50;1.00;;;;;;5112424;28;20211;-65
2021/01/28 07:17:29;;;;;;;8.73;5.40;;;2.50;1.00;;;;;;5113583;28;20168;-65
2021/01/28 07:20:01;;;;;;;9.02;5.80;;;2.70;1.00;;;;;;5113557;28;20266;-60
2021/01/28 07:22:30;;;;;;;10.35;5.95;;;2.50;1.00;;;;;;5113663;28;20620;-60
2021/01/28 07:25:16;;;;;;;14.02;7.40;;;2.40;1.00;;;;;;5113309;28;20191;-65
2021/01/28 07:28:02;;;;;;;9.68;5.95;;;2.30;1.00;;;;;;5113551;28;20183;-64
2021/01/28 07:30:34;;;;;;;7.72;5.35;;;2.50;1.00;;;;;;5112617;28;20244;-60
2021/01/28 07:33:00;;;;;;;10.93;6.22;;;2.40;1.00;;;;;;5113769;28;20180;-59
2021/01/28 07:35:25;;;;;;;8.73;6.27;;;2.20;1.00;;;;;;5113386;28;20199;-60
2021/01/28 07:37:55;;;;;;;10.40;5.90;;;2.30;1.00;;;;;;5109741;28;20434;-60
2021/01/28 07:40:58;;;;;;;10.52;6.30;;;2.50;1.00;;;;;;5100548;28;20172;-60
2021/01/28 07:43:33;;;;;;;15.77;6.85;;;2.80;1.00;;;;;;5101460;28;20183;-60
2021/01/28 07:46:27;;;;;;;9.82;6.38;;;2.70;1.00;;;;;;5113931;28;20216;-66
2021/01/28 07:49:15;;;;;;;8.55;5.65;;;2.60;1.00;;;;;;5120687;28;20183;-67
2021/01/28 07:52:05;;;;;;;11.88;6.00;;;2.40;1.00;;;;;;5118646;27;20324;-67
2021/01/28 07:54:30;;;;;;;10.65;6.93;;;2.30;1.00;;;;;;5098462;27;20631;-67
2021/01/28 07:57:01;;;;;;;10.30;5.90;;;2.50;1.00;;;;;;5120209;28;20201;-67
2021/01/28 07:59:37;;;;;;;11.88;6.97;;;2.80;1.00;;;;;;5118377;28;20182;-70
2021/01/28 08:02:29;;;;;;;10.82;6.82;;;2.90;1.00;;;;;;5117558;28;20190;-67
2021/01/28 08:04:57;;;;;;;9.52;6.45;;;2.70;1.00;;;;;;5112148;28;20510;-66
2021/01/28 08:07:32;;;;;;;11.00;6.10;;;2.60;1.00;;;;;;5127706;27;20206;-62
2021/01/28 08:10:02;;;;;;;16.20;7.90;;;2.30;1.00;;;;;;5132383;27;20303;-61
2021/01/28 08:12:45;;;;;;;10.18;5.82;;;2.20;1.00;;;;;;5137855;27;20182;-60
2021/01/28 08:15:16;;;;;;;11.48;7.00;;;2.30;1.00;;;;;;5097826;28;20223;-61
2021/01/28 08:17:43;;;;;;;9.90;6.18;;;2.20;1.00;;;;;;5096085;28;20184;-65
2021/01/28 08:20:23;;;;;;;9.63;5.50;;;2.10;1.00;;;;;;5109643;28;20198;-61
2021/01/28 08:22:53;;;;;;;10.68;6.47;;;2.20;1.00;;;;;;5115023;28;20206;-63
2021/01/28 08:25:20;;;;;;;9.07;5.18;;;2.10;1.00;;;;;;5115813;28;20616;-65
2021/01/28 08:27:46;;;;;;;8.02;4.35;;;2.20;1.00;;;;;;5100968;28;20215;-66
2021/01/28 08:30:20;;;;;;;9.93;6.07;;;2.10;1.00;;;;;;5095699;28;20255;-64
2021/01/28 08:32:47;;;;;;;9.75;5.10;;;2.10;1.00;;;;;;5095787;28;20186;-62
2021/01/28 08:35:36;;;;;;;10.00;6.30;;;2.00;1.00;;;;;;5095239;28;20675;-62
2021/01/28 08:38:05;;;;;;;13.52;8.63;;;2.00;1.00;;;;;;5095529;28;20600;-64
2021/01/28 08:40:30;;;;;;;7.65;5.43;;;2.40;1.00;;;;;;5135473;27;20261;-66
2021/01/28 08:43:06;;;;;;;8.53;6.17;;;2.40;1.00;;;;;;5136185;27;20305;-63
2021/01/28 08:45:32;;;;;;;8.90;5.22;;;2.50;99.90;;;;;;5136045;27;20619;-62
2021/01/28 08:48:06;;;;;;;7.00;4.72;;;2.40;58.50;;;;;;5136006;27;20179;-65
2021/01/28 08:50:32;;;;;;;10.68;5.55;;;2.10;21.20;;;;;;5126950;27;20203;-63
2021/01/28 08:53:05;;;;;;;9.32;4.65;;;2.10;99.90;;;;;;5129348;27;20194;-66
2021/01/28 08:55:35;;;;;;;8.10;4.97;;;2.00;13.70;;;;;;5135246;27;20291;-62
2021/01/28 08:58:28;;;;;;;9.10;4.35;;;2.10;3.80;;;;;;5131252;27;20176;-62
2021/01/28 09:01:00;;;;;;;6.53;4.68;;;2.20;1.00;;;;;;5115138;28;20179;-66
2021/01/28 09:03:31;;;;;;;9.40;5.47;;;2.10;1.00;;;;;;5115147;28;20631;-65
2021/01/28 09:06:01;;;;;;;7.95;6.22;;;2.30;1.00;;;;;;5115131;28;20633;-63
2021/01/28 09:08:41;;;;;;;9.07;5.85;;;2.70;1.00;;;;;;5094645;28;20593;-68
2021/01/28 09:11:15;;;;;;;6.72;5.00;;;3.20;1.00;;;;;;5094569;28;20559;-67
2021/01/28 09:13:41;;;;;;;5.15;4.50;;;2.90;1.00;;;;;;5094306;28;20183;-65
2021/01/28 09:16:18;;;;;;;5.90;4.70;;;2.90;99.90;;;;;;5094678;28;20211;-64
2021/01/28 09:18:46;;;;;;;10.13;5.90;;;3.10;1.00;;;;;;5094769;28;20183;-66
2021/01/28 09:21:17;;;;;;;9.27;5.97;;;3.10;1.00;;;;;;5093517;28;20183;-62
2021/01/28 09:24:04;;;;;;;6.38;4.60;;;3.40;1.00;;;;;;5105610;27;20197;-66
2021/01/28 09:26:39;;;;;;;9.35;5.75;;;3.30;99.90;;;;;;5101972;28;20175;-66
2021/01/28 09:29:30;;;;;;;7.22;5.38;;;3.50;1.00;;;;;;5114492;28;20242;-65
2021/01/28 09:32:05;;;;;;;8.20;5.47;;;3.20;1.00;;;;;;5114571;28;20168;-63
2021/01/28 09:34:31;;;;;;;7.38;6.05;;;3.40;99.90;;;;;;5114159;28;20271;-64
2021/01/28 09:36:58;;;;;;;84.33;37.93;;;3.00;1.00;;;;;;5114771;28;20500;-65
2021/01/28 09:39:32;;;;;;;12.48;9.20;;;3.00;1.00;;;;;;5113385;28;20274;-65
2021/01/28 09:42:25;;;;;;;11.00;6.53;;;3.70;17.30;;;;;;5114300;28;20591;-64
2021/01/28 09:44:51;;;;;;;9.30;7.07;;;3.30;99.90;;;;;;5112865;28;20190;-65
2021/01/28 09:47:31;;;;;;;9.55;6.63;;;2.80;99.90;;;;;;5114342;28;20607;-64
2021/01/28 09:50:03;;;;;;;9.48;6.22;;;2.80;1.00;;;;;;5114531;28;20187;-63
2021/01/28 09:52:34;;;;;;;7.70;5.47;;;2.60;99.90;;;;;;5114320;28;20175;-63
2021/01/28 09:55:06;;;;;;;9.73;7.40;;;2.80;99.90;;;;;;5112634;28;20292;-65
2021/01/28 09:57:33;;;;;;;10.45;7.40;;;3.30;99.90;;;;;;5114325;28;20670;-64
2021/01/28 09:59:59;;;;;;;11.07;6.93;;;2.80;1.00;;;;;;5114283;28;20171;-64
2021/01/28 10:02:44;;;;;;;11.97;7.70;;;3.10;1.00;;;;;;5113450;28;20210;-67
2021/01/28 10:05:11;;;;;;;11.32;7.20;;;3.50;99.90;;;;;;5113086;28;20901;-68
2021/01/28 10:07:37;;;;;;;8.93;6.18;;;3.00;1.00;;;;;;5113681;28;20187;-69
2021/01/28 10:10:04;;;;;;;9.10;6.33;;;2.90;99.90;;;;;;5113855;28;20181;-63
2021/01/28 10:12:31;;;;;;;7.65;5.25;;;3.00;99.90;;;;;;5113908;28;20175;-60
2021/01/28 10:14:57;;;;;;;6.07;4.75;;;2.90;99.90;;;;;;5114182;28;20667;-61
2021/01/28 10:17:22;;;;;;;6.75;4.50;;;2.60;99.90;;;;;;5114051;28;20190;-60
2021/01/28 10:19:48;;;;;;;7.77;5.03;;;2.70;1.00;;;;;;5114165;28;20274;-63
2021/01/28 10:22:17;;;;;;;8.57;5.70;;;2.90;1.00;;;;;;5114283;28;20163;-62
2021/01/28 10:24:42;;;;;;;9.77;6.50;;;3.40;99.90;;;;;;5114231;28;20175;-66
2021/01/28 10:27:09;;;;;;;9.37;4.87;;;3.90;1.00;;;;;;5114198;28;20183;-65
2021/01/28 10:29:40;;;;;;;7.85;5.57;;;3.60;1.00;;;;;;5114536;28;20175;-65
2021/01/28 10:32:08;;;;;;;7.65;5.28;;;3.40;1.00;;;;;;5114552;28;20471;-66
2021/01/28 10:34:34;;;;;;;7.97;5.88;;;2.90;1.00;;;;;;5112670;28;20202;-66
2021/01/28 10:37:00;;;;;;;7.55;4.80;;;3.00;1.00;;;;;;5114297;28;20258;-63
2021/01/28 10:39:27;;;;;;;6.63;4.93;;;3.00;99.90;;;;;;5113186;28;20258;-64
2021/01/28 10:41:52;;;;;;;7.53;4.85;;;3.60;1.00;;;;;;5115599;28;20175;-64
2021/01/28 10:44:20;;;;;;;9.20;5.50;;;3.90;99.90;;;;;;5113838;28;20185;-61
2021/01/28 10:46:46;;;;;;;8.20;5.25;;;3.80;90.90;;;;;;5115327;28;20179;-61
2021/01/28 10:49:11;;;;;;;8.38;5.28;;;3.80;1.00;;;;;;5113677;28;20194;-63
2021/01/28 10:51:37;;;;;;;8.57;4.90;;;3.80;1.00;;;;;;5114350;28;20187;-64
2021/01/28 10:54:04;;;;;;;9.00;5.50;;;4.30;99.90;;;;;;5109532;28;20239;-63
2021/01/28 10:56:29;;;;;;;5.50;4.47;;;3.70;1.00;;;;;;5114076;28;20298;-63
2021/01/28 10:58:55;;;;;;;6.93;5.37;;;3.90;1.00;;;;;;5114536;28;20254;-64
2021/01/28 11:01:21;;;;;;;6.27;4.53;;;3.90;1.00;;;;;;5113681;28;20961;-62
2021/01/28 11:03:47;;;;;;;7.78;4.80;;;4.10;2.90;;;;;;5113588;28;20199;-66
2021/01/28 11:06:13;;;;;;;5.80;4.37;;;4.50;1.00;;;;;;5115409;28;20178;-68
2021/01/28 11:08:40;;;;;;;7.80;5.35;;;4.60;99.90;;;;;;5117154;28;20180;-67
2021/01/28 11:11:06;;;;;;;7.97;4.82;;;4.30;1.00;;;;;;5113439;28;20258;-66
2021/01/28 11:13:31;;;;;;;5.35;4.35;;;3.70;1.00;;;;;;5113502;28;20638;-67
2021/01/28 11:15:57;;;;;;;7.20;4.53;;;3.50;99.90;;;;;;5118064;28;20210;-67
2021/01/28 11:18:23;;;;;;;7.97;5.70;;;3.60;1.00;;;;;;5117338;28;20209;-65
2021/01/28 11:20:48;;;;;;;6.20;4.87;;;3.40;99.90;;;;;;5115357;28;20517;-65
2021/01/28 11:23:14;;;;;;;6.17;4.63;;;3.40;1.00;;;;;;5117177;28;20190;-63
2021/01/28 11:25:40;;;;;;;8.57;5.57;;;3.20;1.00;;;;;;5117223;28;20179;-60
2021/01/28 11:28:06;;;;;;;5.60;3.60;;;3.30;99.90;;;;;;5116549;28;20616;-66
2021/01/28 11:30:33;;;;;;;5.65;3.80;;;3.30;1.00;;;;;;5116035;28;20436;-67
2021/01/28 11:33:00;;;;;;;7.50;4.82;;;3.50;1.00;;;;;;5117405;28;20187;-65
2021/01/28 11:35:30;;;;;;;9.27;4.95;;;3.20;99.90;;;;;;5116798;28;20274;-65
2021/01/28 11:38:00;;;;;;;4.50;3.65;;;3.40;1.00;;;;;;5117118;28;20187;-65
2021/01/28 11:40:28;;;;;;;8.68;5.47;;;3.90;1.00;;;;;;5116658;28;20175;-65
2021/01/28 11:42:54;;;;;;;6.63;4.50;;;3.90;99.90;;;;;;5117036;28;20168;-66
2021/01/28 11:45:22;;;;;;;8.30;3.63;;;3.70;99.90;;;;;;5116342;28;20182;-61
2021/01/28 11:47:48;;;;;;;50.03;22.17;;;3.30;1.00;;;;;;5116987;28;20751;-62
2021/01/28 11:50:14;;;;;;;7.60;4.50;;;3.70;1.00;;;;;;5117236;28;20172;-63
2021/01/28 11:52:40;;;;;;;6.95;4.38;;;3.80;99.90;;;;;;5116974;28;20660;-62
2021/01/28 11:55:10;;;;;;;8.30;5.60;;;4.10;39.10;;;;;;5116486;28;20207;-66
2021/01/28 11:57:36;;;;;;;5.55;4.45;;;4.30;99.90;;;;;;5116804;28;20244;-66
2021/01/28 12:00:03;;;;;;;3.90;3.40;;;3.60;1.00;;;;;;5116466;28;20168;-66
2021/01/28 12:02:28;;;;;;;6.05;4.03;;;3.50;1.00;;;;;;5115504;28;20191;-66
2021/01/28 12:04:54;;;;;;;4.50;3.50;;;3.20;1.00;;;;;;5116025;28;20183;-68
2021/01/28 12:07:19;;;;;;;6.40;3.80;;;3.20;99.90;;;;;;5116298;28;20186;-66
2021/01/28 12:09:45;;;;;;;4.30;3.83;;;3.30;1.00;;;;;;5112387;28;20192;-67
2021/01/28 12:12:11;;;;;;;3.93;3.13;;;3.40;1.00;;;;;;5096108;28;20176;-62
2021/01/28 12:14:37;;;;;;;6.22;3.70;;;3.30;1.00;;;;;;5095249;28;20449;-61
2021/01/28 12:17:03;;;;;;;4.83;3.50;;;3.40;1.00;;;;;;5095418;28;20241;-64
2021/01/28 12:19:29;;;;;;;5.40;4.18;;;3.40;1.00;;;;;;5095494;28;20176;-63
2021/01/28 12:21:54;;;;;;;5.77;2.90;;;3.70;3.20;;;;;;5098792;28;20229;-67
2021/01/28 12:24:20;;;;;;;6.40;3.50;;;4.30;1.00;;;;;;5115533;28;20225;-64
2021/01/28 12:26:45;;;;;;;3.93;2.80;;;4.20;99.90;;;;;;5114854;28;20175;-64
2021/01/28 12:29:11;;;;;;;9.73;3.90;;;4.40;99.90;;;;;;5115626;28;20176;-65
2021/01/28 12:31:36;;;;;;;3.83;2.80;;;4.10;27.60;;;;;;5114762;28;20220;-64
2021/01/28 12:34:02;;;;;;;7.03;4.93;;;3.50;99.90;;;;;;5111642;28;20623;-62
2021/01/28 12:36:28;;;;;;;4.90;2.77;;;3.70;99.90;;;;;;5115851;28;20360;-65
2021/01/28 12:38:54;;;;;;;2.87;2.57;;;3.50;99.90;;;;;;5115991;28;20425;-62
2021/01/28 12:41:19;;;;;;;3.93;3.27;;;3.80;1.00;;;;;;5116079;28;20432;-66
2021/01/28 12:43:45;;;;;;;4.40;3.60;;;3.80;99.90;;;;;;5115251;28;20236;-64
2021/01/28 12:46:10;;;;;;;7.73;3.83;;;3.60;99.90;;;;;;5112393;28;20191;-63
2021/01/28 12:48:36;;;;;;;4.20;3.80;;;3.90;99.90;;;;;;5095665;28;20282;-64
2021/01/28 12:51:01;;;;;;;4.37;3.10;;;3.70;99.90;;;;;;5106348;28;20179;-65
2021/01/28 12:53:27;;;;;;;5.60;3.40;;;3.60;99.90;;;;;;5114985;28;20239;-63
2021/01/28 12:55:53;;;;;;;4.63;3.33;;;3.50;99.90;;;;;;5114348;28;20210;-65
2021/01/28 12:58:18;;;;;;;4.33;2.40;;;3.40;99.90;;;;;;5112245;28;20429;-64
2021/01/28 13:00:44;;;;;;;4.50;2.97;;;3.10;99.90;;;;;;5106233;28;20305;-62
2021/01/28 13:03:09;;;;;;;5.20;3.80;;;3.10;99.90;;;;;;5113592;28;20198;-63
2021/01/28 13:05:35;;;;;;;5.33;3.63;;;3.10;99.90;;;;;;5106119;28;20232;-63
2021/01/28 13:08:01;;;;;;;2.60;2.17;;;3.20;99.90;;;;;;5114076;28;20187;-65
2021/01/28 13:10:26;;;;;;;3.50;2.67;;;3.10;1.00;;;;;;5115101;28;20179;-64
2021/01/28 13:12:53;;;;;;;4.10;3.13;;;3.00;1.00;;;;;;5115063;28;20514;-67
2021/01/28 13:15:21;;;;;;;4.65;2.90;;;3.10;1.00;;;;;;5114485;28;20195;-62